createdAt,value
2023-02-22T00:02:37.564Z,94905.34
2023-02-22T00:05:48.641Z,94902.84
2023-02-22T00:08:57.234Z,94904.44
2023-02-22T00:12:05.796Z,94901.81
2023-02-22T00:15:16.990Z,94896.72
2023-02-22T00:18:27.908Z,94899.53
2023-02-22T00:21:38.221Z,94895.47
2023-02-22T00:24:46.440Z,94891.25
2023-02-22T00:27:54.996Z,94892.47
2023-02-22T00:31:05.252Z,94890.00
2023-02-22T00:34:15.119Z,94896.97
2023-02-22T00:37:24.639Z,94893.31
2023-02-22T00:40:35.535Z,94881.50
2023-02-22T00:43:43.788Z,94884.59
2023-02-22T00:46:53.811Z,94881.28
2023-02-22T00:50:04.140Z,94879.50
2023-02-22T00:53:13.657Z,94876.94
2023-02-22T00:56:21.989Z,94876.34
2023-02-22T00:59:31.130Z,94869.88
2023-02-22T01:02:39.834Z,94870.56
2023-02-22T01:05:49.108Z,94872.22
2023-02-22T01:08:58.818Z,94870.03
2023-02-22T01:12:08.042Z,94867.56
2023-02-22T01:15:21.633Z,94862.34
2023-02-22T01:18:29.819Z,94862.63
2023-02-22T01:21:38.039Z,94861.66
2023-02-22T01:24:47.728Z,94856.75
2023-02-22T01:27:58.631Z,94850.47
2023-02-22T01:31:07.386Z,94849.34
2023-02-22T01:34:17.366Z,94851.28
2023-02-22T01:37:25.532Z,94854.13
2023-02-22T01:40:37.476Z,94848.97
2023-02-22T01:43:46.478Z,94853.06
2023-02-22T01:46:56.856Z,94847.75
2023-02-22T01:50:05.293Z,94851.13
2023-02-22T01:53:18.508Z,94854.06
2023-02-22T01:56:33.652Z,94850.06
2023-02-22T01:59:47.205Z,94847.88
2023-02-22T02:03:12.950Z,94844.75
2023-02-22T02:06:22.096Z,94840.94
2023-02-22T02:09:37.440Z,94834.19
2023-02-22T02:12:51.015Z,94826.72
2023-02-22T02:15:59.315Z,94822.84
2023-02-22T02:19:20.321Z,94818.22
2023-02-22T02:22:47.716Z,94816.00
2023-02-22T02:26:35.371Z,94813.63
2023-02-22T02:30:49.804Z,94815.13
2023-02-22T02:34:11.604Z,94821.19
2023-02-22T02:37:34.196Z,94809.66
2023-02-22T02:40:53.946Z,94808.97
2023-02-22T02:44:12.080Z,94797.50
2023-02-22T02:47:28.939Z,94794.44
2023-02-22T02:50:46.102Z,94788.38
2023-02-22T02:53:55.735Z,94785.59
2023-02-22T02:57:05.655Z,94786.06
2023-02-22T03:00:24.149Z,94775.09
2023-02-22T03:04:17.473Z,94773.91
2023-02-22T03:07:45.756Z,94769.63
2023-02-22T03:11:05.560Z,94761.06
2023-02-22T03:14:36.913Z,94756.44
2023-02-22T03:17:55.052Z,94753.88
2023-02-22T03:21:16.883Z,94749.84
2023-02-22T03:24:38.557Z,94751.03
2023-02-22T03:27:53.288Z,94748.81
2023-02-22T03:31:07.243Z,94747.66
2023-02-22T03:34:23.499Z,94754.78
2023-02-22T03:37:37.473Z,94762.88
2023-02-22T03:40:55.493Z,94755.09
2023-02-22T03:44:09.563Z,94755.19
2023-02-22T03:47:28.669Z,94759.75
2023-02-22T03:50:39.894Z,94764.09
2023-02-22T03:53:49.622Z,94764.38
2023-02-22T03:57:09.715Z,94775.94
2023-02-22T04:00:25.508Z,94780.72
2023-02-22T04:03:33.723Z,94788.78
2023-02-22T04:06:43.608Z,94785.25
2023-02-22T04:09:53.095Z,94779.88
2023-02-22T04:13:02.926Z,94789.38
2023-02-22T04:16:11.310Z,94782.28
2023-02-22T04:19:20.000Z,94776.38
2023-02-22T04:22:28.197Z,94774.44
2023-02-22T04:25:36.791Z,94763.09
2023-02-22T04:28:53.662Z,94765.16
2023-02-22T04:32:06.280Z,94764.03
2023-02-22T04:35:14.829Z,94773.75
2023-02-22T04:38:25.945Z,94775.13
2023-02-22T04:41:36.369Z,94771.22
2023-02-22T04:44:46.209Z,94758.81
2023-02-22T04:47:54.685Z,94755.22
2023-02-22T04:51:03.601Z,94754.25
2023-02-22T04:54:14.126Z,94747.63
2023-02-22T05:00:57.525Z,94760.00
2023-02-22T05:04:07.647Z,94746.97
2023-02-22T05:07:16.112Z,94747.78
2023-02-22T05:10:24.801Z,94748.38
2023-02-22T05:13:33.313Z,94754.25
2023-02-22T05:16:42.988Z,94751.63
2023-02-22T05:19:51.217Z,94744.66
2023-02-22T05:23:02.067Z,94746.63
2023-02-22T05:26:11.718Z,94740.41
2023-02-22T05:29:21.107Z,94750.16
2023-02-22T05:32:30.964Z,94749.34
2023-02-22T05:35:39.216Z,94736.69
2023-02-22T05:38:47.600Z,94739.31
2023-02-22T05:41:56.001Z,94743.06
2023-02-22T05:45:06.551Z,94739.09
2023-02-22T05:48:17.073Z,94741.09
2023-02-22T05:51:25.262Z,94735.31
2023-02-22T05:54:33.389Z,94743.81
2023-02-22T05:57:41.498Z,94744.00
2023-02-22T06:00:49.899Z,94740.09
2023-02-22T06:04:00.191Z,94744.66
2023-02-22T06:07:08.521Z,94737.94
2023-02-22T06:10:17.312Z,94743.31
2023-02-22T06:13:25.765Z,94745.94
2023-02-22T06:16:33.935Z,94741.38
2023-02-22T06:19:43.986Z,94747.84
2023-02-22T06:22:54.715Z,94740.19
2023-02-22T06:26:02.830Z,94734.34
2023-02-22T06:29:11.048Z,94739.69
2023-02-22T06:32:19.202Z,94738.44
2023-02-22T06:35:28.757Z,94750.75
2023-02-22T06:38:37.140Z,94750.56
2023-02-22T06:41:47.013Z,94754.03
2023-02-22T06:44:55.193Z,94749.69
2023-02-22T06:48:03.496Z,94753.03
2023-02-22T06:51:13.292Z,94752.09
2023-02-22T06:54:23.245Z,94755.69
2023-02-22T06:57:31.375Z,94759.22
2023-02-22T07:00:39.786Z,94766.56
2023-02-22T07:03:50.503Z,94762.25
2023-02-22T07:07:00.546Z,94762.91
2023-02-22T07:10:16.895Z,94765.53
2023-02-22T07:13:25.470Z,94760.06
2023-02-22T07:16:33.748Z,94759.78
2023-02-22T07:19:41.927Z,94765.94
2023-02-22T07:22:51.884Z,94766.63
2023-02-22T07:26:02.142Z,94756.69
2023-02-22T07:29:11.330Z,94761.25
2023-02-22T07:32:20.001Z,94757.63
2023-02-22T07:35:33.660Z,94762.38
2023-02-22T07:38:43.236Z,94758.66
2023-02-22T07:41:51.422Z,94751.91
2023-02-22T07:45:07.193Z,94751.09
2023-02-22T07:48:18.487Z,94743.81
2023-02-22T07:51:27.083Z,94738.66
2023-02-22T07:54:37.995Z,94730.63
2023-02-22T07:57:47.585Z,94736.34
2023-02-22T08:00:59.270Z,94732.50
2023-02-22T08:04:07.496Z,94723.38
2023-02-22T08:07:15.890Z,94729.63
2023-02-22T08:10:28.309Z,94723.91
2023-02-22T08:13:37.488Z,94725.97
2023-02-22T08:16:46.280Z,94717.97
2023-02-22T08:19:54.804Z,94726.38
2023-02-22T08:23:04.910Z,94720.25
2023-02-22T08:26:18.491Z,94723.63
2023-02-22T08:29:33.497Z,94723.34
2023-02-22T08:32:42.095Z,94716.97
2023-02-22T08:35:51.693Z,94717.56
2023-02-22T08:39:00.641Z,94709.25
2023-02-22T08:42:10.850Z,94713.06
2023-02-22T08:45:19.830Z,94710.38
2023-02-22T08:48:28.256Z,94709.09
2023-02-22T08:51:37.819Z,94697.53
2023-02-22T08:54:47.565Z,94697.59
2023-02-22T08:57:57.064Z,94701.88
2023-02-22T09:01:05.595Z,94694.34
2023-02-22T09:04:14.124Z,94700.13
2023-02-22T09:07:22.312Z,94692.25
2023-02-22T09:10:34.259Z,94687.38
2023-02-22T09:13:43.760Z,94691.41
2023-02-22T09:16:52.281Z,94692.06
2023-02-22T09:20:00.450Z,94685.13
2023-02-22T09:23:10.656Z,94689.63
2023-02-22T09:26:18.863Z,94691.50
2023-02-22T09:29:29.442Z,94684.16
2023-02-22T09:32:38.568Z,94685.25
2023-02-22T09:35:50.175Z,94692.38
2023-02-22T09:38:58.907Z,94676.84
2023-02-22T09:42:17.261Z,94685.41
2023-02-22T09:45:38.869Z,94677.34
2023-02-22T09:49:07.308Z,94676.06
2023-02-22T09:52:22.864Z,94670.78
2023-02-22T09:55:38.652Z,94672.34
2023-02-22T09:58:52.345Z,94669.41
2023-02-22T10:02:20.305Z,94671.19
2023-02-22T10:05:37.471Z,94656.59
2023-02-22T10:08:46.231Z,94662.22
2023-02-22T10:12:01.672Z,94652.00
2023-02-22T10:15:41.213Z,94652.06
2023-02-22T10:19:20.540Z,94656.09
2023-02-22T10:22:56.718Z,94651.63
2023-02-22T10:26:19.905Z,94646.91
2023-02-22T10:29:37.694Z,94650.53
2023-02-22T10:32:54.513Z,94642.31
2023-02-22T10:36:04.858Z,94642.22
2023-02-22T10:39:27.414Z,94635.22
2023-02-22T10:42:35.827Z,94633.84
2023-02-22T10:45:44.327Z,94626.25
2023-02-22T10:48:57.821Z,94628.34
2023-02-22T10:52:19.175Z,94631.84
2023-02-22T10:55:27.859Z,94630.25
2023-02-22T10:58:44.710Z,94620.84
2023-02-22T11:01:53.420Z,94626.13
2023-02-22T11:05:06.103Z,94615.06
2023-02-22T11:08:28.165Z,94603.97
2023-02-22T11:11:36.285Z,94602.94
2023-02-22T11:14:44.432Z,94604.59
2023-02-22T11:17:56.159Z,94603.78
2023-02-22T11:21:10.194Z,94601.84
2023-02-22T11:24:24.132Z,94596.47
2023-02-22T11:27:43.759Z,94586.56
2023-02-22T11:30:53.355Z,94579.34
2023-02-22T11:34:04.881Z,94582.47
2023-02-22T11:37:31.232Z,94577.78
2023-02-22T11:40:40.826Z,94562.41
2023-02-22T11:43:52.187Z,94565.56
2023-02-22T11:47:06.929Z,94566.03
2023-02-22T11:50:29.485Z,94563.44
2023-02-22T11:54:04.728Z,94557.47
2023-02-22T11:57:37.238Z,94544.00
2023-02-22T12:00:55.711Z,94549.56
2023-02-22T12:04:40.922Z,94547.13
2023-02-22T12:08:19.316Z,94548.59
2023-02-22T12:11:41.058Z,94551.53
2023-02-22T12:15:01.916Z,94545.38
2023-02-22T12:18:22.818Z,94537.88
2023-02-22T12:21:34.766Z,94539.50
2023-02-22T12:24:51.604Z,94532.63
2023-02-22T12:28:24.697Z,94531.88
2023-02-22T12:31:44.194Z,94527.88
2023-02-22T12:34:59.500Z,94524.88
2023-02-22T12:38:23.172Z,94526.59
2023-02-22T12:41:41.435Z,94523.41
2023-02-22T12:45:02.238Z,94518.72
2023-02-22T12:48:31.478Z,94513.19
2023-02-22T12:51:48.460Z,94517.63
2023-02-22T12:55:07.517Z,94512.03
2023-02-22T12:58:27.039Z,94512.31
2023-02-22T13:01:40.850Z,94508.38
2023-02-22T13:04:50.870Z,94503.03
2023-02-22T13:08:23.449Z,94511.91
2023-02-22T13:11:43.383Z,94509.81
2023-02-22T13:15:09.423Z,94496.41
2023-02-22T13:18:30.183Z,94502.44
2023-02-22T13:21:50.579Z,94494.06
2023-02-22T13:25:09.575Z,94490.25
2023-02-22T13:28:30.141Z,94495.78
2023-02-22T13:32:10.598Z,94479.84
2023-02-22T13:35:52.245Z,94484.34
2023-02-22T13:39:43.465Z,94476.78
2023-02-22T13:43:23.956Z,94479.03
2023-02-22T13:47:28.676Z,94469.81
2023-02-22T13:51:14.984Z,94468.19
2023-02-22T13:54:35.404Z,94473.56
2023-02-22T13:58:00.147Z,94465.84
2023-02-22T14:01:55.000Z,94462.59
2023-02-22T14:05:53.264Z,94460.13
2023-02-22T14:09:13.495Z,94459.00
2023-02-22T14:12:52.464Z,94458.34
2023-02-22T14:16:25.626Z,94465.28
2023-02-22T14:19:34.375Z,94462.09
2023-02-22T14:22:45.623Z,94467.91
2023-02-22T14:25:55.685Z,94470.00
2023-02-22T14:29:20.437Z,94455.19
2023-02-22T14:32:33.932Z,94454.28
2023-02-22T14:35:49.746Z,94456.75
2023-02-22T14:39:09.488Z,94461.31
2023-02-22T14:42:25.522Z,94457.41
2023-02-22T14:45:43.516Z,94464.91
2023-02-22T14:49:00.791Z,94462.44
2023-02-22T14:52:23.654Z,94462.28
2023-02-22T14:55:35.034Z,94461.63
2023-02-22T14:58:49.544Z,94461.63
2023-02-22T15:02:14.911Z,94455.78
2023-02-22T15:05:23.193Z,94456.16
2023-02-22T15:08:32.139Z,94449.09
2023-02-22T15:11:40.333Z,94458.84
2023-02-22T15:14:49.714Z,94461.22
2023-02-22T15:17:59.845Z,94457.69
2023-02-22T15:21:16.190Z,94457.78
2023-02-22T15:24:29.197Z,94454.59
2023-02-22T15:27:39.103Z,94457.06
2023-02-22T15:30:47.490Z,94458.72
2023-02-22T15:33:57.336Z,94461.28
2023-02-22T15:37:25.475Z,94463.50
2023-02-22T15:40:35.848Z,94465.81
2023-02-22T15:43:43.997Z,94472.28
2023-02-22T15:46:54.421Z,94465.16
2023-02-22T15:50:23.500Z,94463.91
2023-02-22T15:53:43.521Z,94470.28
2023-02-22T15:56:56.607Z,94465.34
2023-02-22T16:00:06.662Z,94459.59
2023-02-22T16:03:27.392Z,94464.84
2023-02-22T16:06:41.592Z,94461.75
2023-02-22T16:09:52.471Z,94472.59
2023-02-22T16:13:30.993Z,94480.72
2023-02-22T16:16:41.595Z,94475.47
2023-02-22T16:19:50.475Z,94471.25
2023-02-22T16:23:00.239Z,94477.50
2023-02-22T16:26:23.605Z,94481.59
2023-02-22T16:29:32.092Z,94482.34
2023-02-22T16:32:42.347Z,94482.28
2023-02-22T16:35:52.944Z,94480.25
2023-02-22T16:39:02.679Z,94495.38
2023-02-22T16:42:11.112Z,94498.94
2023-02-22T16:45:21.052Z,94499.66
2023-02-22T16:48:32.588Z,94500.63
2023-02-22T16:51:46.717Z,94511.91
2023-02-22T16:54:56.238Z,94511.66
2023-02-22T17:01:46.979Z,94516.41
2023-02-22T17:04:55.129Z,94524.03
2023-02-22T17:08:03.721Z,94523.81
2023-02-22T17:11:15.633Z,94531.53
2023-02-22T17:14:31.881Z,94520.28
2023-02-22T17:17:40.009Z,94523.91
2023-02-22T17:20:48.522Z,94525.31
2023-02-22T17:23:57.075Z,94539.38
2023-02-22T17:27:06.692Z,94538.47
2023-02-22T17:30:23.828Z,94535.72
2023-02-22T17:33:36.707Z,94543.03
2023-02-22T17:36:44.817Z,94538.81
2023-02-22T17:39:53.260Z,94545.47
2023-02-22T17:43:03.818Z,94549.06
2023-02-22T17:46:12.201Z,94554.84
2023-02-22T17:49:20.557Z,94549.78
2023-02-22T17:52:30.152Z,94545.47
2023-02-22T17:55:40.634Z,94540.94
2023-02-22T17:58:55.646Z,94538.03
2023-02-22T18:02:04.032Z,94539.97
2023-02-22T18:05:16.233Z,94540.84
2023-02-22T18:08:25.278Z,94541.66
2023-02-22T18:11:33.379Z,94544.47
2023-02-22T18:14:43.190Z,94544.63
2023-02-22T18:17:51.371Z,94543.97
2023-02-22T18:21:00.597Z,94549.38
2023-02-22T18:24:09.051Z,94547.44
2023-02-22T18:27:17.302Z,94546.16
2023-02-22T18:30:27.404Z,94539.09
2023-02-22T18:33:35.567Z,94539.41
2023-02-22T18:36:43.726Z,94545.75
2023-02-22T18:39:52.024Z,94542.47
2023-02-22T18:43:00.291Z,94548.69
2023-02-22T18:46:13.383Z,94544.28
2023-02-22T18:49:21.776Z,94549.47
2023-02-22T18:52:31.042Z,94543.28
2023-02-22T18:55:39.337Z,94549.72
2023-02-22T18:58:47.410Z,94542.97
2023-02-22T19:01:57.512Z,94544.97
2023-02-22T19:05:07.320Z,94541.69
2023-02-22T19:08:15.636Z,94546.72
2023-02-22T19:11:25.797Z,94552.75
2023-02-22T19:14:34.129Z,94550.84
2023-02-22T19:17:45.132Z,94553.13
2023-02-22T19:20:57.482Z,94558.69
2023-02-22T19:24:06.973Z,94553.50
2023-02-22T19:27:15.505Z,94558.06
2023-02-22T19:30:24.761Z,94559.50
2023-02-22T19:33:37.511Z,94558.25
2023-02-22T19:36:47.327Z,94570.00
2023-02-22T19:39:55.488Z,94572.44
2023-02-22T19:43:03.573Z,94568.81
2023-02-22T19:46:12.953Z,94574.09
2023-02-22T19:49:22.817Z,94571.16
2023-02-22T19:52:30.972Z,94575.44
2023-02-22T19:55:39.089Z,94575.84
2023-02-22T19:58:51.117Z,94579.56
2023-02-22T20:01:59.350Z,94586.75
2023-02-22T20:05:16.316Z,94580.28
2023-02-22T20:08:26.480Z,94581.47
2023-02-22T20:11:35.274Z,94584.66
2023-02-22T20:14:43.812Z,94585.69
2023-02-22T20:17:52.630Z,94596.34
2023-02-22T20:21:08.176Z,94591.41
2023-02-22T20:24:18.389Z,94581.75
2023-02-22T20:27:26.568Z,94595.19
2023-02-22T20:30:34.651Z,94594.91
2023-02-22T20:33:43.645Z,94591.19
2023-02-22T20:36:54.372Z,94588.72
2023-02-22T20:40:04.916Z,94586.09
2023-02-22T20:43:13.499Z,94590.88
2023-02-22T20:46:23.326Z,94590.31
2023-02-22T20:49:31.562Z,94594.50
2023-02-22T20:52:40.996Z,94600.44
2023-02-22T20:55:55.651Z,94599.69
2023-02-22T20:59:06.037Z,94596.97
2023-02-22T21:02:14.179Z,94600.06
2023-02-22T21:05:22.507Z,94598.63
2023-02-22T21:08:33.248Z,94605.91
2023-02-22T21:11:42.423Z,94596.78
2023-02-22T21:14:51.206Z,94591.97
2023-02-22T21:17:59.376Z,94592.88
2023-02-22T21:21:10.375Z,94588.66
2023-02-22T21:24:19.973Z,94586.13
2023-02-22T21:27:28.190Z,94581.66
2023-02-22T21:30:36.497Z,94586.59
2023-02-22T21:33:44.893Z,94590.78
2023-02-22T21:36:54.260Z,94597.19
2023-02-22T21:40:10.188Z,94592.44
2023-02-22T21:43:19.020Z,94593.34
2023-02-22T21:46:29.078Z,94593.91
2023-02-22T21:49:38.002Z,94600.00
2023-02-22T21:52:49.738Z,94597.88
2023-02-22T21:56:05.472Z,94596.03
2023-02-22T21:59:18.828Z,94590.28
2023-02-22T22:02:29.138Z,94591.63
2023-02-22T22:05:40.720Z,94587.34
2023-02-22T22:08:50.387Z,94584.69
2023-02-22T22:12:05.067Z,94584.69
2023-02-22T22:15:16.452Z,94587.59
2023-02-22T22:18:24.811Z,94585.22
2023-02-22T22:21:33.583Z,94585.22
2023-02-22T22:24:45.722Z,94580.66
2023-02-22T22:27:56.167Z,94585.25
2023-02-22T22:31:04.652Z,94584.22
2023-02-22T22:34:13.191Z,94580.56
2023-02-22T22:37:22.629Z,94585.50
2023-02-22T22:40:34.247Z,94590.88
2023-02-22T22:43:46.126Z,94586.84
2023-02-22T22:46:54.816Z,94587.69
2023-02-22T22:50:03.253Z,94587.13
2023-02-22T22:53:11.783Z,94580.38
2023-02-22T22:56:26.319Z,94589.69
2023-02-22T22:59:37.246Z,94597.31
2023-02-22T23:02:48.688Z,94590.78
2023-02-22T23:06:02.189Z,94586.94
2023-02-22T23:09:18.697Z,94593.59
2023-02-22T23:12:31.527Z,94607.16
2023-02-22T23:15:47.537Z,94603.78
2023-02-22T23:18:56.413Z,94605.91
2023-02-22T23:22:07.063Z,94598.88
2023-02-22T23:25:15.842Z,94602.44
2023-02-22T23:28:24.071Z,94600.72
2023-02-22T23:31:33.678Z,94608.47
2023-02-22T23:34:41.956Z,94609.94
2023-02-22T23:37:53.392Z,94609.56
2023-02-22T23:41:04.501Z,94600.91
2023-02-22T23:44:17.710Z,94600.91
2023-02-22T23:47:31.733Z,94604.47
2023-02-22T23:50:40.075Z,94603.88
2023-02-22T23:53:49.549Z,94605.88
2023-02-22T23:56:57.800Z,94605.06
